sensor_id;sensor_type;location;lat;lon;timestamp;P1;durP1;ratioP1;P2;durP2;ratioP2
22415;SDS011;12204;50.600;4.608;2023-02-26T00:03:53;5.18;;;2.33;;
22415;SDS011;12204;50.600;4.608;2023-02-26T00:09:00;5.20;;;2.20;;
22415;SDS011;12204;50.600;4.608;2023-02-26T00:14:08;6.30;;;2.35;;
22415;SDS011;12204;50.600;4.608;2023-02-26T00:19:18;6.75;;;2.35;;
22415;SDS011;12204;50.600;4.608;2023-02-26T00:24:22;5.20;;;2.03;;
22415;SDS011;12204;50.600;4.608;2023-02-26T00:29:26;5.65;;;2.20;;
22415;SDS011;12204;50.600;4.608;2023-02-26T00:34:32;5.78;;;2.22;;
22415;SDS011;12204;50.600;4.608;2023-02-26T00:39:37;5.80;;;2.15;;
22415;SDS011;12204;50.600;4.608;2023-02-26T00:44:52;5.70;;;2.22;;
22415;SDS011;12204;50.600;4.608;2023-02-26T00:50:03;5.90;;;2.10;;
22415;SDS011;12204;50.600;4.608;2023-02-26T00:55:41;5.80;;;2.17;;
22415;SDS011;12204;50.600;4.608;2023-02-26T01:00:44;7.32;;;2.20;;
22415;SDS011;12204;50.600;4.608;2023-02-26T01:05:49;6.40;;;2.67;;
22415;SDS011;12204;50.600;4.608;2023-02-26T01:10:54;6.63;;;2.40;;
22415;SDS011;12204;50.600;4.608;2023-02-26T01:16:00;5.43;;;2.13;;
22415;SDS011;12204;50.600;4.608;2023-02-26T01:21:16;5.40;;;2.10;;
22415;SDS011;12204;50.600;4.608;2023-02-26T01:26:25;6.78;;;2.42;;
22415;SDS011;12204;50.600;4.608;2023-02-26T01:31:37;6.25;;;2.40;;
22415;SDS011;12204;50.600;4.608;2023-02-26T01:36:52;5.78;;;2.30;;
22415;SDS011;12204;50.600;4.608;2023-02-26T01:42:04;5.55;;;2.05;;
22415;SDS011;12204;50.600;4.608;2023-02-26T01:47:19;5.57;;;2.22;;
22415;SDS011;12204;50.600;4.608;2023-02-26T01:58:23;5.07;;;2.05;;
22415;SDS011;12204;50.600;4.608;2023-02-26T02:03:33;5.97;;;2.05;;
22415;SDS011;12204;50.600;4.608;2023-02-26T02:08:42;5.18;;;2.10;;
22415;SDS011;12204;50.600;4.608;2023-02-26T02:13:50;6.05;;;2.10;;
22415;SDS011;12204;50.600;4.608;2023-02-26T02:19:15;6.10;;;2.13;;
22415;SDS011;12204;50.600;4.608;2023-02-26T02:25:45;5.10;;;1.95;;
22415;SDS011;12204;50.600;4.608;2023-02-26T02:37:10;5.50;;;2.05;;
22415;SDS011;12204;50.600;4.608;2023-02-26T02:42:37;6.15;;;2.30;;
22415;SDS011;12204;50.600;4.608;2023-02-26T02:48:06;5.20;;;1.95;;
22415;SDS011;12204;50.600;4.608;2023-02-26T02:53:33;5.75;;;2.10;;
22415;SDS011;12204;50.600;4.608;2023-02-26T02:58:59;5.38;;;2.00;;
22415;SDS011;12204;50.600;4.608;2023-02-26T03:04:33;5.38;;;2.10;;
22415;SDS011;12204;50.600;4.608;2023-02-26T03:09:37;5.22;;;2.10;;
22415;SDS011;12204;50.600;4.608;2023-02-26T03:14:40;5.43;;;2.10;;
22415;SDS011;12204;50.600;4.608;2023-02-26T03:19:52;5.85;;;1.98;;
22415;SDS011;12204;50.600;4.608;2023-02-26T03:25:11;5.18;;;2.10;;
22415;SDS011;12204;50.600;4.608;2023-02-26T03:30:24;5.10;;;2.13;;
22415;SDS011;12204;50.600;4.608;2023-02-26T03:35:39;5.13;;;1.80;;
22415;SDS011;12204;50.600;4.608;2023-02-26T03:40:53;4.68;;;1.80;;
22415;SDS011;12204;50.600;4.608;2023-02-26T03:46:05;6.35;;;2.00;;
22415;SDS011;12204;50.600;4.608;2023-02-26T03:51:17;5.53;;;1.90;;
22415;SDS011;12204;50.600;4.608;2023-02-26T03:56:35;5.85;;;1.80;;
22415;SDS011;12204;50.600;4.608;2023-02-26T04:02:02;5.60;;;1.83;;
22415;SDS011;12204;50.600;4.608;2023-02-26T04:07:16;5.00;;;2.10;;
22415;SDS011;12204;50.600;4.608;2023-02-26T04:12:21;3.90;;;1.58;;
22415;SDS011;12204;50.600;4.608;2023-02-26T04:17:28;4.28;;;1.70;;
22415;SDS011;12204;50.600;4.608;2023-02-26T04:22:34;4.80;;;1.67;;
22415;SDS011;12204;50.600;4.608;2023-02-26T04:27:38;4.30;;;1.70;;
22415;SDS011;12204;50.600;4.608;2023-02-26T04:32:42;4.70;;;1.67;;
22415;SDS011;12204;50.600;4.608;2023-02-26T04:37:49;6.88;;;1.80;;
22415;SDS011;12204;50.600;4.608;2023-02-26T04:42:53;5.18;;;1.70;;
22415;SDS011;12204;50.600;4.608;2023-02-26T04:47:59;4.22;;;1.70;;
22415;SDS011;12204;50.600;4.608;2023-02-26T04:53:04;6.15;;;2.20;;
22415;SDS011;12204;50.600;4.608;2023-02-26T04:58:10;5.00;;;1.70;;
22415;SDS011;12204;50.600;4.608;2023-02-26T05:03:14;4.82;;;1.60;;
22415;SDS011;12204;50.600;4.608;2023-02-26T05:08:19;4.47;;;1.52;;
22415;SDS011;12204;50.600;4.608;2023-02-26T05:13:24;4.72;;;1.52;;
22415;SDS011;12204;50.600;4.608;2023-02-26T05:18:28;5.82;;;1.70;;
22415;SDS011;12204;50.600;4.608;2023-02-26T05:23:34;3.75;;;1.45;;
22415;SDS011;12204;50.600;4.608;2023-02-26T05:28:37;5.63;;;1.80;;
22415;SDS011;12204;50.600;4.608;2023-02-26T05:33:41;6.30;;;1.70;;
22415;SDS011;12204;50.600;4.608;2023-02-26T05:38:46;3.78;;;1.42;;
22415;SDS011;12204;50.600;4.608;2023-02-26T05:43:50;4.38;;;1.60;;
22415;SDS011;12204;50.600;4.608;2023-02-26T05:48:53;4.28;;;1.60;;
22415;SDS011;12204;50.600;4.608;2023-02-26T05:53:58;5.82;;;1.73;;
22415;SDS011;12204;50.600;4.608;2023-02-26T05:59:01;4.72;;;1.50;;
22415;SDS011;12204;50.600;4.608;2023-02-26T06:04:05;4.13;;;1.52;;
22415;SDS011;12204;50.600;4.608;2023-02-26T06:09:10;4.47;;;1.60;;
22415;SDS011;12204;50.600;4.608;2023-02-26T06:14:13;3.60;;;1.40;;
22415;SDS011;12204;50.600;4.608;2023-02-26T06:19:17;4.80;;;1.50;;
22415;SDS011;12204;50.600;4.608;2023-02-26T06:24:23;4.35;;;1.42;;
22415;SDS011;12204;50.600;4.608;2023-02-26T06:29:26;3.95;;;1.45;;
22415;SDS011;12204;50.600;4.608;2023-02-26T06:34:30;3.70;;;1.38;;
22415;SDS011;12204;50.600;4.608;2023-02-26T06:39:35;4.18;;;1.35;;
22415;SDS011;12204;50.600;4.608;2023-02-26T06:44:39;3.50;;;1.38;;
22415;SDS011;12204;50.600;4.608;2023-02-26T06:49:42;5.45;;;1.50;;
22415;SDS011;12204;50.600;4.608;2023-02-26T06:54:47;3.88;;;1.40;;
22415;SDS011;12204;50.600;4.608;2023-02-26T06:59:50;4.35;;;1.40;;
22415;SDS011;12204;50.600;4.608;2023-02-26T07:04:54;3.85;;;1.30;;
22415;SDS011;12204;50.600;4.608;2023-02-26T07:09:59;3.97;;;1.40;;
22415;SDS011;12204;50.600;4.608;2023-02-26T07:15:02;3.67;;;1.27;;
22415;SDS011;12204;50.600;4.608;2023-02-26T07:20:08;5.22;;;1.48;;
22415;SDS011;12204;50.600;4.608;2023-02-26T07:25:15;3.33;;;1.25;;
22415;SDS011;12204;50.600;4.608;2023-02-26T07:30:19;4.03;;;1.30;;
22415;SDS011;12204;50.600;4.608;2023-02-26T07:35:22;3.60;;;1.30;;
22415;SDS011;12204;50.600;4.608;2023-02-26T07:40:28;3.75;;;1.25;;
22415;SDS011;12204;50.600;4.608;2023-02-26T07:45:31;3.58;;;1.30;;
22415;SDS011;12204;50.600;4.608;2023-02-26T07:50:35;4.43;;;1.35;;
22415;SDS011;12204;50.600;4.608;2023-02-26T07:55:39;3.17;;;1.27;;
22415;SDS011;12204;50.600;4.608;2023-02-26T08:00:43;4.10;;;1.30;;
22415;SDS011;12204;50.600;4.608;2023-02-26T08:05:47;4.10;;;1.38;;
22415;SDS011;12204;50.600;4.608;2023-02-26T08:10:52;4.53;;;1.20;;
22415;SDS011;12204;50.600;4.608;2023-02-26T08:15:55;3.72;;;1.20;;
22415;SDS011;12204;50.600;4.608;2023-02-26T08:20:59;4.70;;;1.20;;
22415;SDS011;12204;50.600;4.608;2023-02-26T08:26:04;3.17;;;1.10;;
22415;SDS011;12204;50.600;4.608;2023-02-26T08:31:11;3.78;;;1.23;;
22415;SDS011;12204;50.600;4.608;2023-02-26T08:36:14;4.38;;;1.25;;
22415;SDS011;12204;50.600;4.608;2023-02-26T08:41:19;3.65;;;1.30;;
22415;SDS011;12204;50.600;4.608;2023-02-26T08:46:23;3.65;;;1.33;;
22415;SDS011;12204;50.600;4.608;2023-02-26T08:51:28;4.50;;;1.20;;
22415;SDS011;12204;50.600;4.608;2023-02-26T08:56:33;3.30;;;1.38;;
22415;SDS011;12204;50.600;4.608;2023-02-26T09:01:36;2.72;;;1.10;;
22415;SDS011;12204;50.600;4.608;2023-02-26T09:06:40;4.15;;;1.20;;
22415;SDS011;12204;50.600;4.608;2023-02-26T09:11:45;4.05;;;1.33;;
22415;SDS011;12204;50.600;4.608;2023-02-26T09:16:48;3.90;;;1.30;;
22415;SDS011;12204;50.600;4.608;2023-02-26T09:21:52;2.72;;;1.10;;
22415;SDS011;12204;50.600;4.608;2023-02-26T09:26:57;4.82;;;1.30;;
22415;SDS011;12204;50.600;4.608;2023-02-26T09:32:01;3.67;;;1.20;;
22415;SDS011;12204;50.600;4.608;2023-02-26T09:37:06;3.20;;;1.15;;
22415;SDS011;12204;50.600;4.608;2023-02-26T09:42:14;4.95;;;1.23;;
22415;SDS011;12204;50.600;4.608;2023-02-26T09:47:39;3.15;;;1.10;;
22415;SDS011;12204;50.600;4.608;2023-02-26T09:52:49;2.85;;;1.00;;
22415;SDS011;12204;50.600;4.608;2023-02-26T09:58:00;4.20;;;1.20;;
22415;SDS011;12204;50.600;4.608;2023-02-26T10:03:16;3.50;;;1.30;;
22415;SDS011;12204;50.600;4.608;2023-02-26T10:08:32;3.17;;;1.00;;
22415;SDS011;12204;50.600;4.608;2023-02-26T10:13:45;4.70;;;1.30;;
22415;SDS011;12204;50.600;4.608;2023-02-26T10:19:00;3.33;;;1.05;;
22415;SDS011;12204;50.600;4.608;2023-02-26T10:24:10;2.72;;;1.10;;
22415;SDS011;12204;50.600;4.608;2023-02-26T10:29:23;4.53;;;1.20;;
22415;SDS011;12204;50.600;4.608;2023-02-26T10:34:34;4.32;;;1.20;;
22415;SDS011;12204;50.600;4.608;2023-02-26T10:39:46;4.03;;;1.38;;
22415;SDS011;12204;50.600;4.608;2023-02-26T10:44:59;4.15;;;1.17;;
22415;SDS011;12204;50.600;4.608;2023-02-26T10:50:19;3.60;;;1.17;;
22415;SDS011;12204;50.600;4.608;2023-02-26T10:55:32;4.30;;;1.30;;
22415;SDS011;12204;50.600;4.608;2023-02-26T11:00:44;3.83;;;1.30;;
22415;SDS011;12204;50.600;4.608;2023-02-26T11:05:54;3.90;;;1.20;;
22415;SDS011;12204;50.600;4.608;2023-02-26T11:10:58;3.22;;;1.15;;
22415;SDS011;12204;50.600;4.608;2023-02-26T11:16:07;3.92;;;1.20;;
22415;SDS011;12204;50.600;4.608;2023-02-26T11:21:17;3.78;;;1.10;;
22415;SDS011;12204;50.600;4.608;2023-02-26T11:26:27;4.40;;;1.40;;
22415;SDS011;12204;50.600;4.608;2023-02-26T11:31:38;3.60;;;1.20;;
22415;SDS011;12204;50.600;4.608;2023-02-26T11:36:43;3.65;;;1.33;;
22415;SDS011;12204;50.600;4.608;2023-02-26T11:41:47;4.85;;;1.20;;
22415;SDS011;12204;50.600;4.608;2023-02-26T11:46:55;5.00;;;1.20;;
22415;SDS011;12204;50.600;4.608;2023-02-26T11:52:05;3.45;;;1.20;;
22415;SDS011;12204;50.600;4.608;2023-02-26T11:57:24;3.65;;;1.30;;
22415;SDS011;12204;50.600;4.608;2023-02-26T12:02:33;3.47;;;1.15;;
22415;SDS011;12204;50.600;4.608;2023-02-26T12:07:41;2.53;;;1.00;;
22415;SDS011;12204;50.600;4.608;2023-02-26T12:12:53;2.97;;;1.10;;
22415;SDS011;12204;50.600;4.608;2023-02-26T12:18:21;3.75;;;1.13;;
22415;SDS011;12204;50.600;4.608;2023-02-26T12:29:41;2.97;;;1.10;;
22415;SDS011;12204;50.600;4.608;2023-02-26T12:35:25;3.78;;;1.13;;
22415;SDS011;12204;50.600;4.608;2023-02-26T12:40:59;2.25;;;1.02;;
22415;SDS011;12204;50.600;4.608;2023-02-26T12:46:32;4.80;;;1.23;;
22415;SDS011;12204;50.600;4.608;2023-02-26T12:52:02;3.95;;;1.08;;
22415;SDS011;12204;50.600;4.608;2023-02-26T12:57:46;3.35;;;1.10;;
22415;SDS011;12204;50.600;4.608;2023-02-26T13:09:06;3.28;;;1.10;;
22415;SDS011;12204;50.600;4.608;2023-02-26T13:14:28;3.10;;;1.15;;
22415;SDS011;12204;50.600;4.608;2023-02-26T13:19:47;2.63;;;1.00;;
22415;SDS011;12204;50.600;4.608;2023-02-26T13:24:57;5.40;;;1.27;;
22415;SDS011;12204;50.600;4.608;2023-02-26T13:30:12;3.45;;;1.10;;
22415;SDS011;12204;50.600;4.608;2023-02-26T13:35:26;3.15;;;1.10;;
22415;SDS011;12204;50.600;4.608;2023-02-26T13:40:42;3.28;;;1.00;;
22415;SDS011;12204;50.600;4.608;2023-02-26T13:46:01;2.78;;;1.02;;
22415;SDS011;12204;50.600;4.608;2023-02-26T13:51:34;3.20;;;1.10;;
22415;SDS011;12204;50.600;4.608;2023-02-26T13:56:51;3.78;;;1.00;;
22415;SDS011;12204;50.600;4.608;2023-02-26T14:02:01;3.97;;;1.10;;
22415;SDS011;12204;50.600;4.608;2023-02-26T14:07:52;2.35;;;1.00;;
22415;SDS011;12204;50.600;4.608;2023-02-26T14:13:32;2.00;;;0.90;;
22415;SDS011;12204;50.600;4.608;2023-02-26T14:18:40;3.13;;;1.10;;
22415;SDS011;12204;50.600;4.608;2023-02-26T14:23:54;2.72;;;1.00;;
22415;SDS011;12204;50.600;4.608;2023-02-26T14:29:07;3.15;;;1.10;;
22415;SDS011;12204;50.600;4.608;2023-02-26T14:34:19;3.63;;;1.00;;
22415;SDS011;12204;50.600;4.608;2023-02-26T14:44:36;2.92;;;1.02;;
22415;SDS011;12204;50.600;4.608;2023-02-26T14:49:44;3.67;;;1.00;;
22415;SDS011;12204;50.600;4.608;2023-02-26T14:54:56;2.67;;;1.00;;
22415;SDS011;12204;50.600;4.608;2023-02-26T15:00:38;3.17;;;1.02;;
22415;SDS011;12204;50.600;4.608;2023-02-26T15:05:56;2.17;;;0.85;;
22415;SDS011;12204;50.600;4.608;2023-02-26T15:11:30;2.17;;;0.88;;
22415;SDS011;12204;50.600;4.608;2023-02-26T15:22:15;3.78;;;1.00;;
22415;SDS011;12204;50.600;4.608;2023-02-26T15:27:37;3.20;;;1.15;;
22415;SDS011;12204;50.600;4.608;2023-02-26T15:32:42;2.90;;;1.00;;
22415;SDS011;12204;50.600;4.608;2023-02-26T15:37:47;2.33;;;0.88;;
22415;SDS011;12204;50.600;4.608;2023-02-26T15:42:53;2.87;;;0.90;;
22415;SDS011;12204;50.600;4.608;2023-02-26T15:48:01;2.35;;;0.90;;
22415;SDS011;12204;50.600;4.608;2023-02-26T15:53:11;2.75;;;1.00;;
22415;SDS011;12204;50.600;4.608;2023-02-26T15:58:32;2.45;;;0.80;;
22415;SDS011;12204;50.600;4.608;2023-02-26T16:03:42;2.90;;;1.00;;
22415;SDS011;12204;50.600;4.608;2023-02-26T16:08:46;2.03;;;0.95;;
22415;SDS011;12204;50.600;4.608;2023-02-26T16:13:50;3.08;;;0.90;;
22415;SDS011;12204;50.600;4.608;2023-02-26T16:18:56;2.95;;;0.80;;
22415;SDS011;12204;50.600;4.608;2023-02-26T16:24:00;3.42;;;1.10;;
22415;SDS011;12204;50.600;4.608;2023-02-26T16:29:09;2.88;;;0.82;;
22415;SDS011;12204;50.600;4.608;2023-02-26T16:34:26;2.75;;;0.93;;
22415;SDS011;12204;50.600;4.608;2023-02-26T16:39:42;2.30;;;0.90;;
22415;SDS011;12204;50.600;4.608;2023-02-26T16:44:48;2.17;;;0.73;;
22415;SDS011;12204;50.600;4.608;2023-02-26T16:50:00;1.45;;;0.80;;
22415;SDS011;12204;50.600;4.608;2023-02-26T16:55:05;2.35;;;0.80;;
22415;SDS011;12204;50.600;4.608;2023-02-26T17:00:20;1.08;;;0.70;;
22415;SDS011;12204;50.600;4.608;2023-02-26T17:05:33;2.50;;;0.85;;
22415;SDS011;12204;50.600;4.608;2023-02-26T17:10:44;2.40;;;0.80;;
22415;SDS011;12204;50.600;4.608;2023-02-26T17:15:52;2.00;;;0.68;;
22415;SDS011;12204;50.600;4.608;2023-02-26T17:20:59;2.30;;;0.90;;
22415;SDS011;12204;50.600;4.608;2023-02-26T17:26:04;3.17;;;0.80;;
22415;SDS011;12204;50.600;4.608;2023-02-26T17:31:08;1.42;;;0.70;;
22415;SDS011;12204;50.600;4.608;2023-02-26T17:36:15;2.30;;;0.90;;
22415;SDS011;12204;50.600;4.608;2023-02-26T17:41:20;2.57;;;0.80;;
22415;SDS011;12204;50.600;4.608;2023-02-26T17:46:24;1.83;;;0.70;;
22415;SDS011;12204;50.600;4.608;2023-02-26T17:51:29;3.22;;;0.90;;
22415;SDS011;12204;50.600;4.608;2023-02-26T17:56:33;3.15;;;0.90;;
22415;SDS011;12204;50.600;4.608;2023-02-26T18:01:37;2.00;;;0.70;;
22415;SDS011;12204;50.600;4.608;2023-02-26T18:06:42;2.85;;;0.82;;
22415;SDS011;12204;50.600;4.608;2023-02-26T18:11:46;2.10;;;0.80;;
22415;SDS011;12204;50.600;4.608;2023-02-26T18:16:49;1.88;;;0.80;;
22415;SDS011;12204;50.600;4.608;2023-02-26T18:21:55;2.05;;;0.70;;
22415;SDS011;12204;50.600;4.608;2023-02-26T18:26:59;1.90;;;0.80;;
22415;SDS011;12204;50.600;4.608;2023-02-26T18:32:02;1.83;;;0.80;;
22415;SDS011;12204;50.600;4.608;2023-02-26T18:37:08;3.33;;;0.80;;
22415;SDS011;12204;50.600;4.608;2023-02-26T18:42:16;1.83;;;0.70;;
22415;SDS011;12204;50.600;4.608;2023-02-26T18:47:23;2.55;;;0.80;;
22415;SDS011;12204;50.600;4.608;2023-02-26T18:52:28;1.50;;;0.63;;
22415;SDS011;12204;50.600;4.608;2023-02-26T18:57:31;1.90;;;0.80;;
22415;SDS011;12204;50.600;4.608;2023-02-26T19:02:35;2.03;;;0.82;;
22415;SDS011;12204;50.600;4.608;2023-02-26T19:07:40;1.90;;;0.80;;
22415;SDS011;12204;50.600;4.608;2023-02-26T19:12:44;3.40;;;0.90;;
22415;SDS011;12204;50.600;4.608;2023-02-26T19:17:47;2.75;;;0.80;;
22415;SDS011;12204;50.600;4.608;2023-02-26T19:22:53;2.63;;;0.95;;
22415;SDS011;12204;50.600;4.608;2023-02-26T19:27:57;2.15;;;0.80;;
22415;SDS011;12204;50.600;4.608;2023-02-26T19:33:00;2.78;;;0.85;;
22415;SDS011;12204;50.600;4.608;2023-02-26T19:38:05;2.65;;;1.10;;
22415;SDS011;12204;50.600;4.608;2023-02-26T19:43:10;2.47;;;0.80;;
22415;SDS011;12204;50.600;4.608;2023-02-26T19:48:13;2.97;;;1.00;;
22415;SDS011;12204;50.600;4.608;2023-02-26T19:53:18;2.00;;;0.90;;
22415;SDS011;12204;50.600;4.608;2023-02-26T19:58:22;4.35;;;1.27;;
22415;SDS011;12204;50.600;4.608;2023-02-26T20:03:26;2.55;;;0.90;;
22415;SDS011;12204;50.600;4.608;2023-02-26T20:08:32;3.38;;;1.10;;
22415;SDS011;12204;50.600;4.608;2023-02-26T20:13:36;4.50;;;1.20;;
22415;SDS011;12204;50.600;4.608;2023-02-26T20:18:39;4.43;;;1.30;;
22415;SDS011;12204;50.600;4.608;2023-02-26T20:23:47;4.35;;;1.23;;
22415;SDS011;12204;50.600;4.608;2023-02-26T20:28:50;3.05;;;1.10;;
22415;SDS011;12204;50.600;4.608;2023-02-26T20:33:54;4.38;;;1.40;;
22415;SDS011;12204;50.600;4.608;2023-02-26T20:39:00;3.17;;;1.20;;
22415;SDS011;12204;50.600;4.608;2023-02-26T20:44:05;3.38;;;1.30;;
22415;SDS011;12204;50.600;4.608;2023-02-26T20:49:08;3.78;;;1.42;;
22415;SDS011;12204;50.600;4.608;2023-02-26T20:54:13;3.58;;;1.23;;
22415;SDS011;12204;50.600;4.608;2023-02-26T20:59:18;3.97;;;1.25;;
22415;SDS011;12204;50.600;4.608;2023-02-26T21:04:21;5.03;;;1.33;;
22415;SDS011;12204;50.600;4.608;2023-02-26T21:09:27;4.75;;;1.40;;
22415;SDS011;12204;50.600;4.608;2023-02-26T21:14:30;4.88;;;1.48;;
22415;SDS011;12204;50.600;4.608;2023-02-26T21:19:36;3.72;;;1.50;;
22415;SDS011;12204;50.600;4.608;2023-02-26T21:24:41;4.10;;;1.40;;
22415;SDS011;12204;50.600;4.608;2023-02-26T21:29:45;5.13;;;1.42;;
22415;SDS011;12204;50.600;4.608;2023-02-26T21:34:48;4.75;;;1.40;;
22415;SDS011;12204;50.600;4.608;2023-02-26T21:39:53;5.65;;;1.60;;
22415;SDS011;12204;50.600;4.608;2023-02-26T21:44:56;7.22;;;1.58;;
22415;SDS011;12204;50.600;4.608;2023-02-26T21:50:00;5.38;;;1.83;;
22415;SDS011;12204;50.600;4.608;2023-02-26T21:55:05;4.72;;;1.60;;
22415;SDS011;12204;50.600;4.608;2023-02-26T22:00:10;6.32;;;1.52;;
22415;SDS011;12204;50.600;4.608;2023-02-26T22:05:16;3.85;;;1.58;;
22415;SDS011;12204;50.600;4.608;2023-02-26T22:10:21;5.38;;;1.50;;
22415;SDS011;12204;50.600;4.608;2023-02-26T22:15:25;5.78;;;1.75;;
22415;SDS011;12204;50.600;4.608;2023-02-26T22:20:28;4.75;;;1.70;;
22415;SDS011;12204;50.600;4.608;2023-02-26T22:25:33;4.78;;;1.55;;
22415;SDS011;12204;50.600;4.608;2023-02-26T22:30:37;5.25;;;1.60;;
22415;SDS011;12204;50.600;4.608;2023-02-26T22:35:41;5.75;;;1.60;;
22415;SDS011;12204;50.600;4.608;2023-02-26T22:40:47;4.60;;;1.80;;
22415;SDS011;12204;50.600;4.608;2023-02-26T22:45:50;5.18;;;1.63;;
22415;SDS011;12204;50.600;4.608;2023-02-26T22:50:54;5.72;;;1.70;;
22415;SDS011;12204;50.600;4.608;2023-02-26T22:56:00;5.85;;;1.70;;
22415;SDS011;12204;50.600;4.608;2023-02-26T23:01:04;5.22;;;2.05;;
22415;SDS011;12204;50.600;4.608;2023-02-26T23:06:09;5.07;;;1.83;;
22415;SDS011;12204;50.600;4.608;2023-02-26T23:11:15;4.82;;;1.70;;
22415;SDS011;12204;50.600;4.608;2023-02-26T23:16:18;4.40;;;1.70;;
22415;SDS011;12204;50.600;4.608;2023-02-26T23:21:21;4.32;;;1.48;;
22415;SDS011;12204;50.600;4.608;2023-02-26T23:26:27;4.50;;;1.67;;
22415;SDS011;12204;50.600;4.608;2023-02-26T23:31:31;4.20;;;1.80;;
22415;SDS011;12204;50.600;4.608;2023-02-26T23:36:35;5.78;;;1.75;;
22415;SDS011;12204;50.600;4.608;2023-02-26T23:41:40;5.95;;;1.73;;
22415;SDS011;12204;50.600;4.608;2023-02-26T23:46:43;5.22;;;1.90;;
22415;SDS011;12204;50.600;4.608;2023-02-26T23:51:47;4.80;;;1.80;;
22415;SDS011;12204;50.600;4.608;2023-02-26T23:56:52;5.15;;;1.80;;
